sensor_id;sensor_type;location;lat;lon;timestamp;pressure;altitude;pressure_sealevel;temperature;humidity
69784;BME280;57054;51.978;4.498;2023-07-08T00:00:46;101744.38;;;20.29;58.18
69784;BME280;57054;51.978;4.498;2023-07-08T00:03:15;101741.06;;;20.26;58.55
69784;BME280;57054;51.978;4.498;2023-07-08T00:05:41;101744.91;;;20.22;58.69
69784;BME280;57054;51.978;4.498;2023-07-08T00:08:17;101739.03;;;20.17;58.89
69784;BME280;57054;51.978;4.498;2023-07-08T00:10:46;101734.88;;;20.12;59.04
69784;BME280;57054;51.978;4.498;2023-07-08T00:13:11;101738.38;;;20.13;58.78
69784;BME280;57054;51.978;4.498;2023-07-08T00:15:37;101734.97;;;20.11;58.86
69784;BME280;57054;51.978;4.498;2023-07-08T00:18:12;101731.69;;;20.07;58.84
69784;BME280;57054;51.978;4.498;2023-07-08T00:20:39;101734.34;;;20.07;59.07
69784;BME280;57054;51.978;4.498;2023-07-08T00:23:05;101727.53;;;20.03;59.14
69784;BME280;57054;51.978;4.498;2023-07-08T00:25:31;101718.81;;;20.01;59.17
69784;BME280;57054;51.978;4.498;2023-07-08T00:27:58;101725.81;;;20.02;59.07
69784;BME280;57054;51.978;4.498;2023-07-08T00:30:29;101735.69;;;20.00;59.12
69784;BME280;57054;51.978;4.498;2023-07-08T00:32:55;101727.91;;;19.97;59.28
69784;BME280;57054;51.978;4.498;2023-07-08T00:35:35;101731.63;;;19.94;59.24
69784;BME280;57054;51.978;4.498;2023-07-08T00:38:01;101737.91;;;19.93;59.56
69784;BME280;57054;51.978;4.498;2023-07-08T00:40:31;101728.22;;;19.92;59.11
69784;BME280;57054;51.978;4.498;2023-07-08T00:42:59;101727.38;;;19.92;59.27
69784;BME280;57054;51.978;4.498;2023-07-08T00:48:06;101718.78;;;19.88;59.42
69784;BME280;57054;51.978;4.498;2023-07-08T00:50:32;101716.22;;;19.87;59.41
69784;BME280;57054;51.978;4.498;2023-07-08T00:53:23;101712.91;;;19.83;59.51
69784;BME280;57054;51.978;4.498;2023-07-08T00:55:52;101710.34;;;19.82;59.59
69784;BME280;57054;51.978;4.498;2023-07-08T00:58:20;101717.66;;;19.78;59.92
69784;BME280;57054;51.978;4.498;2023-07-08T01:00:47;101714.34;;;19.74;60.11
69784;BME280;57054;51.978;4.498;2023-07-08T01:03:15;101706.84;;;19.67;60.21
69784;BME280;57054;51.978;4.498;2023-07-08T01:05:42;101711.69;;;19.60;60.75
69784;BME280;57054;51.978;4.498;2023-07-08T01:08:09;101709.66;;;19.51;61.81
69784;BME280;57054;51.978;4.498;2023-07-08T01:10:46;101708.34;;;19.44;61.70
69784;BME280;57054;51.978;4.498;2023-07-08T01:13:14;101701.22;;;19.44;61.97
69784;BME280;57054;51.978;4.498;2023-07-08T01:15:43;101703.88;;;19.44;61.83
69784;BME280;57054;51.978;4.498;2023-07-08T01:18:10;101696.78;;;19.45;61.69
69784;BME280;57054;51.978;4.498;2023-07-08T01:20:37;101686.91;;;19.47;61.55
69784;BME280;57054;51.978;4.498;2023-07-08T01:23:02;101701.97;;;19.46;61.34
69784;BME280;57054;51.978;4.498;2023-07-08T01:25:30;101696.66;;;19.46;61.32
69784;BME280;57054;51.978;4.498;2023-07-08T01:27:56;101697.81;;;19.42;61.35
69784;BME280;57054;51.978;4.498;2023-07-08T01:30:23;101698.78;;;19.41;61.30
69784;BME280;57054;51.978;4.498;2023-07-08T01:32:54;101696.13;;;19.41;61.11
69784;BME280;57054;51.978;4.498;2023-07-08T01:35:21;101696.97;;;19.42;61.05
69784;BME280;57054;51.978;4.498;2023-07-08T01:38:08;101691.84;;;19.38;61.26
69784;BME280;57054;51.978;4.498;2023-07-08T01:40:35;101692.03;;;19.35;61.34
69784;BME280;57054;51.978;4.498;2023-07-08T01:43:03;101692.16;;;19.34;61.45
69784;BME280;57054;51.978;4.498;2023-07-08T01:45:34;101688.75;;;19.32;61.38
69784;BME280;57054;51.978;4.498;2023-07-08T01:48:22;101689.78;;;19.29;61.74
69784;BME280;57054;51.978;4.498;2023-07-08T01:50:52;101681.16;;;19.26;61.95
69784;BME280;57054;51.978;4.498;2023-07-08T01:53:22;101684.13;;;19.21;62.03
69784;BME280;57054;51.978;4.498;2023-07-08T01:55:48;101681.66;;;19.18;62.42
69784;BME280;57054;51.978;4.498;2023-07-08T01:58:13;101672.28;;;19.12;62.52
69784;BME280;57054;51.978;4.498;2023-07-08T02:00:38;101675.22;;;19.08;62.83
69784;BME280;57054;51.978;4.498;2023-07-08T02:03:04;101667.66;;;19.02;63.01
69784;BME280;57054;51.978;4.498;2023-07-08T02:05:29;101673.97;;;18.99;63.03
69784;BME280;57054;51.978;4.498;2023-07-08T02:07:55;101669.53;;;18.99;63.17
69784;BME280;57054;51.978;4.498;2023-07-08T02:10:21;101671.44;;;18.97;63.23
69784;BME280;57054;51.978;4.498;2023-07-08T02:12:46;101663.66;;;18.94;63.15
69784;BME280;57054;51.978;4.498;2023-07-08T02:15:12;101655.81;;;18.93;63.28
69784;BME280;57054;51.978;4.498;2023-07-08T02:17:37;101654.28;;;18.89;63.58
69784;BME280;57054;51.978;4.498;2023-07-08T02:20:03;101656.28;;;18.85;63.68
69784;BME280;57054;51.978;4.498;2023-07-08T02:22:28;101660.94;;;18.82;63.69
69784;BME280;57054;51.978;4.498;2023-07-08T02:24:54;101653.13;;;18.78;63.95
69784;BME280;57054;51.978;4.498;2023-07-08T02:27:19;101656.84;;;18.76;64.19
69784;BME280;57054;51.978;4.498;2023-07-08T02:29:44;101653.78;;;18.68;64.51
69784;BME280;57054;51.978;4.498;2023-07-08T02:32:10;101650.56;;;18.63;64.43
69784;BME280;57054;51.978;4.498;2023-07-08T02:34:36;101650.69;;;18.61;64.84
69784;BME280;57054;51.978;4.498;2023-07-08T02:37:02;101656.16;;;18.58;64.72
69784;BME280;57054;51.978;4.498;2023-07-08T02:39:28;101655.88;;;18.48;66.09
69784;BME280;57054;51.978;4.498;2023-07-08T02:41:53;101649.44;;;18.38;66.97
69784;BME280;57054;51.978;4.498;2023-07-08T02:44:18;101636.81;;;18.27;67.88
69784;BME280;57054;51.978;4.498;2023-07-08T02:46:44;101642.69;;;18.18;67.84
69784;BME280;57054;51.978;4.498;2023-07-08T02:49:09;101640.50;;;18.10;68.41
69784;BME280;57054;51.978;4.498;2023-07-08T02:51:34;101634.44;;;18.08;68.13
69784;BME280;57054;51.978;4.498;2023-07-08T02:54:00;101637.34;;;18.03;68.42
69784;BME280;57054;51.978;4.498;2023-07-08T02:56:25;101637.59;;;17.99;68.61
69784;BME280;57054;51.978;4.498;2023-07-08T02:58:52;101643.38;;;17.91;69.71
69784;BME280;57054;51.978;4.498;2023-07-08T03:01:17;101653.63;;;17.81;70.94
69784;BME280;57054;51.978;4.498;2023-07-08T03:03:46;101651.69;;;17.69;72.56
69784;BME280;57054;51.978;4.498;2023-07-08T03:06:12;101642.66;;;17.57;73.46
69784;BME280;57054;51.978;4.498;2023-07-08T03:08:38;101633.69;;;17.44;73.59
69784;BME280;57054;51.978;4.498;2023-07-08T03:11:05;101640.34;;;17.35;73.82
69784;BME280;57054;51.978;4.498;2023-07-08T03:13:31;101639.69;;;17.32;73.42
69784;BME280;57054;51.978;4.498;2023-07-08T03:15:59;101651.22;;;17.31;73.09
69784;BME280;57054;51.978;4.498;2023-07-08T03:18:25;101649.50;;;17.30;73.14
69784;BME280;57054;51.978;4.498;2023-07-08T03:20:52;101644.22;;;17.30;73.24
69784;BME280;57054;51.978;4.498;2023-07-08T03:23:18;101647.91;;;17.27;74.38
69784;BME280;57054;51.978;4.498;2023-07-08T03:25:44;101653.63;;;17.19;76.14
69784;BME280;57054;51.978;4.498;2023-07-08T03:28:09;101655.06;;;17.09;76.52
69784;BME280;57054;51.978;4.498;2023-07-08T03:30:39;101657.44;;;16.98;76.86
69784;BME280;57054;51.978;4.498;2023-07-08T03:33:04;101658.03;;;16.87;78.13
69784;BME280;57054;51.978;4.498;2023-07-08T03:35:30;101658.50;;;16.78;78.90
69784;BME280;57054;51.978;4.498;2023-07-08T03:37:55;101661.63;;;16.68;79.10
69784;BME280;57054;51.978;4.498;2023-07-08T03:40:20;101658.53;;;16.60;80.02
69784;BME280;57054;51.978;4.498;2023-07-08T03:42:46;101654.50;;;16.53;80.72
69784;BME280;57054;51.978;4.498;2023-07-08T03:45:11;101656.53;;;16.48;81.13
69784;BME280;57054;51.978;4.498;2023-07-08T03:47:37;101656.94;;;16.40;81.88
69784;BME280;57054;51.978;4.498;2023-07-08T03:50:02;101653.66;;;16.35;82.05
69784;BME280;57054;51.978;4.498;2023-07-08T03:52:28;101657.19;;;16.36;81.58
69784;BME280;57054;51.978;4.498;2023-07-08T03:54:53;101652.69;;;16.38;81.57
69784;BME280;57054;51.978;4.498;2023-07-08T03:57:19;101659.56;;;16.40;82.04
69784;BME280;57054;51.978;4.498;2023-07-08T03:59:44;101661.22;;;16.43;82.19
69784;BME280;57054;51.978;4.498;2023-07-08T04:02:13;101656.78;;;16.43;81.81
69784;BME280;57054;51.978;4.498;2023-07-08T04:04:38;101659.44;;;16.43;81.96
69784;BME280;57054;51.978;4.498;2023-07-08T04:07:04;101655.94;;;16.43;81.78
69784;BME280;57054;51.978;4.498;2023-07-08T04:09:30;101663.75;;;16.44;81.53
69784;BME280;57054;51.978;4.498;2023-07-08T04:11:55;101661.03;;;16.46;82.12
69784;BME280;57054;51.978;4.498;2023-07-08T04:14:21;101668.97;;;16.46;82.24
69784;BME280;57054;51.978;4.498;2023-07-08T04:16:57;101665.56;;;16.44;82.94
69784;BME280;57054;51.978;4.498;2023-07-08T04:19:24;101671.88;;;16.41;83.49
69784;BME280;57054;51.978;4.498;2023-07-08T04:21:50;101667.44;;;16.42;83.78
69784;BME280;57054;51.978;4.498;2023-07-08T04:24:16;101670.00;;;16.43;83.61
69784;BME280;57054;51.978;4.498;2023-07-08T04:26:43;101670.06;;;16.42;83.68
69784;BME280;57054;51.978;4.498;2023-07-08T04:29:19;101666.75;;;16.38;84.13
69784;BME280;57054;51.978;4.498;2023-07-08T04:31:45;101665.28;;;16.33;84.06
69784;BME280;57054;51.978;4.498;2023-07-08T04:34:10;101661.00;;;16.30;84.52
69784;BME280;57054;51.978;4.498;2023-07-08T04:36:37;101665.50;;;16.28;85.10
69784;BME280;57054;51.978;4.498;2023-07-08T04:39:04;101657.66;;;16.26;85.37
69784;BME280;57054;51.978;4.498;2023-07-08T04:41:30;101666.44;;;16.27;86.09
69784;BME280;57054;51.978;4.498;2023-07-08T04:43:55;101666.44;;;16.27;85.91
69784;BME280;57054;51.978;4.498;2023-07-08T04:46:36;101670.78;;;16.28;86.00
69784;BME280;57054;51.978;4.498;2023-07-08T04:49:08;101683.84;;;16.31;85.92
69784;BME280;57054;51.978;4.498;2023-07-08T04:51:37;101676.69;;;16.33;86.05
69784;BME280;57054;51.978;4.498;2023-07-08T04:54:03;101675.78;;;16.34;86.12
69784;BME280;57054;51.978;4.498;2023-07-08T04:56:43;101669.31;;;16.40;85.44
69784;BME280;57054;51.978;4.498;2023-07-08T04:59:11;101663.38;;;16.52;84.15
69784;BME280;57054;51.978;4.498;2023-07-08T05:01:38;101662.56;;;16.67;82.39
69784;BME280;57054;51.978;4.498;2023-07-08T05:04:04;101660.88;;;16.82;81.08
69784;BME280;57054;51.978;4.498;2023-07-08T05:06:31;101662.97;;;16.93;79.97
69784;BME280;57054;51.978;4.498;2023-07-08T05:08:58;101672.81;;;17.07;79.15
69784;BME280;57054;51.978;4.498;2023-07-08T05:11:24;101672.31;;;17.16;78.74
69784;BME280;57054;51.978;4.498;2023-07-08T05:13:49;101664.78;;;17.24;77.95
69784;BME280;57054;51.978;4.498;2023-07-08T05:16:14;101662.56;;;17.33;77.51
69784;BME280;57054;51.978;4.498;2023-07-08T05:18:40;101661.38;;;17.38;77.05
69784;BME280;57054;51.978;4.498;2023-07-08T05:21:05;101662.75;;;17.45;76.77
69784;BME280;57054;51.978;4.498;2023-07-08T05:23:31;101659.84;;;17.50;76.72
69784;BME280;57054;51.978;4.498;2023-07-08T05:26:00;101663.06;;;17.55;76.41
69784;BME280;57054;51.978;4.498;2023-07-08T05:28:26;101655.72;;;17.60;76.25
69784;BME280;57054;51.978;4.498;2023-07-08T05:30:54;101654.41;;;17.68;75.50
69784;BME280;57054;51.978;4.498;2023-07-08T05:33:23;101652.34;;;17.73;74.88
69784;BME280;57054;51.978;4.498;2023-07-08T05:35:49;101652.00;;;17.79;74.77
69784;BME280;57054;51.978;4.498;2023-07-08T05:38:15;101663.19;;;17.84;74.64
69784;BME280;57054;51.978;4.498;2023-07-08T05:40:41;101662.00;;;17.90;73.98
69784;BME280;57054;51.978;4.498;2023-07-08T05:43:06;101665.31;;;17.93;74.17
69784;BME280;57054;51.978;4.498;2023-07-08T05:45:32;101649.16;;;17.98;74.09
69784;BME280;57054;51.978;4.498;2023-07-08T05:47:57;101638.28;;;18.02;74.32
69784;BME280;57054;51.978;4.498;2023-07-08T05:50:22;101644.25;;;18.06;74.15
69784;BME280;57054;51.978;4.498;2023-07-08T05:52:48;101649.28;;;18.11;73.97
69784;BME280;57054;51.978;4.498;2023-07-08T05:55:14;101652.63;;;18.14;73.97
69784;BME280;57054;51.978;4.498;2023-07-08T05:57:39;101644.50;;;18.17;73.63
69784;BME280;57054;51.978;4.498;2023-07-08T06:00:05;101654.78;;;18.22;73.34
69784;BME280;57054;51.978;4.498;2023-07-08T06:02:31;101650.16;;;18.26;73.42
69784;BME280;57054;51.978;4.498;2023-07-08T06:04:56;101646.50;;;18.28;72.60
69784;BME280;57054;51.978;4.498;2023-07-08T06:07:22;101653.41;;;18.31;73.08
69784;BME280;57054;51.978;4.498;2023-07-08T06:09:47;101649.69;;;18.33;73.89
69784;BME280;57054;51.978;4.498;2023-07-08T06:12:12;101655.88;;;18.34;73.91
69784;BME280;57054;51.978;4.498;2023-07-08T06:14:38;101650.56;;;18.34;73.67
69784;BME280;57054;51.978;4.498;2023-07-08T06:17:04;101645.06;;;18.37;73.40
69784;BME280;57054;51.978;4.498;2023-07-08T06:19:29;101643.94;;;18.41;73.52
69784;BME280;57054;51.978;4.498;2023-07-08T06:21:55;101639.09;;;18.48;72.76
69784;BME280;57054;51.978;4.498;2023-07-08T06:24:20;101642.41;;;18.51;72.84
69784;BME280;57054;51.978;4.498;2023-07-08T06:26:46;101645.81;;;18.53;73.16
69784;BME280;57054;51.978;4.498;2023-07-08T06:29:11;101644.81;;;18.56;72.46
69784;BME280;57054;51.978;4.498;2023-07-08T06:31:37;101645.47;;;18.59;72.74
69784;BME280;57054;51.978;4.498;2023-07-08T06:34:02;101644.31;;;18.64;72.96
69784;BME280;57054;51.978;4.498;2023-07-08T06:36:29;101642.34;;;18.67;72.90
69784;BME280;57054;51.978;4.498;2023-07-08T06:38:55;101646.41;;;18.73;72.95
69784;BME280;57054;51.978;4.498;2023-07-08T06:41:20;101657.59;;;18.78;72.68
69784;BME280;57054;51.978;4.498;2023-07-08T06:43:46;101653.72;;;18.84;72.30
69784;BME280;57054;51.978;4.498;2023-07-08T06:46:11;101655.88;;;18.91;72.41
69784;BME280;57054;51.978;4.498;2023-07-08T06:48:37;101648.69;;;18.93;72.46
69784;BME280;57054;51.978;4.498;2023-07-08T06:51:02;101646.59;;;18.98;72.18
69784;BME280;57054;51.978;4.498;2023-07-08T06:53:27;101644.59;;;19.02;72.54
69784;BME280;57054;51.978;4.498;2023-07-08T06:55:53;101650.28;;;19.10;71.95
69784;BME280;57054;51.978;4.498;2023-07-08T06:58:18;101646.38;;;19.16;72.22
69784;BME280;57054;51.978;4.498;2023-07-08T07:00:44;101643.31;;;19.22;72.21
69784;BME280;57054;51.978;4.498;2023-07-08T07:03:10;101647.38;;;19.28;72.34
69784;BME280;57054;51.978;4.498;2023-07-08T07:05:36;101651.44;;;19.33;71.99
69784;BME280;57054;51.978;4.498;2023-07-08T07:08:02;101648.19;;;19.43;71.69
69784;BME280;57054;51.978;4.498;2023-07-08T07:10:27;101644.16;;;19.50;71.09
69784;BME280;57054;51.978;4.498;2023-07-08T07:12:53;101632.09;;;19.59;70.98
69784;BME280;57054;51.978;4.498;2023-07-08T07:15:18;101637.03;;;19.65;70.87
69784;BME280;57054;51.978;4.498;2023-07-08T07:17:43;101637.53;;;19.70;70.34
69784;BME280;57054;51.978;4.498;2023-07-08T07:20:09;101631.88;;;19.76;70.09
69784;BME280;57054;51.978;4.498;2023-07-08T07:22:35;101634.94;;;19.83;70.60
69784;BME280;57054;51.978;4.498;2023-07-08T07:25:00;101637.41;;;19.86;70.80
69784;BME280;57054;51.978;4.498;2023-07-08T07:27:26;101629.34;;;19.87;70.76
69784;BME280;57054;51.978;4.498;2023-07-08T07:29:51;101636.03;;;19.93;70.94
69784;BME280;57054;51.978;4.498;2023-07-08T07:32:18;101629.34;;;20.00;70.91
69784;BME280;57054;51.978;4.498;2023-07-08T07:34:46;101632.34;;;20.08;71.06
69784;BME280;57054;51.978;4.498;2023-07-08T07:37:13;101628.31;;;20.16;70.50
69784;BME280;57054;51.978;4.498;2023-07-08T07:39:39;101612.78;;;20.22;70.15
69784;BME280;57054;51.978;4.498;2023-07-08T07:42:05;101620.34;;;20.28;70.47
69784;BME280;57054;51.978;4.498;2023-07-08T07:44:30;101618.81;;;20.37;69.61
69784;BME280;57054;51.978;4.498;2023-07-08T07:46:56;101610.19;;;20.46;69.61
69784;BME280;57054;51.978;4.498;2023-07-08T07:49:21;101611.47;;;20.53;69.62
69784;BME280;57054;51.978;4.498;2023-07-08T07:51:47;101615.44;;;20.61;69.87
69784;BME280;57054;51.978;4.498;2023-07-08T07:54:14;101627.34;;;20.68;69.88
69784;BME280;57054;51.978;4.498;2023-07-08T07:56:39;101631.28;;;20.75;70.19
69784;BME280;57054;51.978;4.498;2023-07-08T07:59:05;101637.03;;;20.82;69.89
69784;BME280;57054;51.978;4.498;2023-07-08T08:01:30;101642.88;;;20.87;69.20
69784;BME280;57054;51.978;4.498;2023-07-08T08:03:56;101638.19;;;20.90;69.13
69784;BME280;57054;51.978;4.498;2023-07-08T08:06:21;101644.13;;;20.94;69.20
69784;BME280;57054;51.978;4.498;2023-07-08T08:08:46;101643.78;;;20.99;68.87
69784;BME280;57054;51.978;4.498;2023-07-08T08:11:13;101647.81;;;21.04;69.10
69784;BME280;57054;51.978;4.498;2023-07-08T08:13:38;101645.78;;;21.08;69.19
69784;BME280;57054;51.978;4.498;2023-07-08T08:16:04;101650.78;;;21.13;69.25
69784;BME280;57054;51.978;4.498;2023-07-08T08:18:29;101651.22;;;21.19;69.31
69784;BME280;57054;51.978;4.498;2023-07-08T08:20:56;101647.97;;;21.27;68.30
69784;BME280;57054;51.978;4.498;2023-07-08T08:23:22;101652.63;;;21.36;67.94
69784;BME280;57054;51.978;4.498;2023-07-08T08:25:47;101651.31;;;21.42;67.81
69784;BME280;57054;51.978;4.498;2023-07-08T08:28:13;101647.50;;;21.46;67.52
69784;BME280;57054;51.978;4.498;2023-07-08T08:30:38;101647.91;;;21.53;68.19
69784;BME280;57054;51.978;4.498;2023-07-08T08:33:04;101655.31;;;21.60;67.94
69784;BME280;57054;51.978;4.498;2023-07-08T08:35:29;101651.34;;;21.66;67.95
69784;BME280;57054;51.978;4.498;2023-07-08T08:37:54;101645.31;;;21.75;66.95
69784;BME280;57054;51.978;4.498;2023-07-08T08:40:20;101658.94;;;21.83;66.60
69784;BME280;57054;51.978;4.498;2023-07-08T08:42:46;101647.16;;;21.86;66.78
69784;BME280;57054;51.978;4.498;2023-07-08T08:45:18;101650.22;;;21.93;66.57
69784;BME280;57054;51.978;4.498;2023-07-08T08:47:49;101640.91;;;21.98;66.80
69784;BME280;57054;51.978;4.498;2023-07-08T08:50:35;101642.03;;;22.07;65.33
69784;BME280;57054;51.978;4.498;2023-07-08T08:53:10;101639.09;;;22.10;65.35
69784;BME280;57054;51.978;4.498;2023-07-08T08:55:36;101646.28;;;22.21;66.02
69784;BME280;57054;51.978;4.498;2023-07-08T08:58:27;101647.06;;;22.34;65.44
69784;BME280;57054;51.978;4.498;2023-07-08T09:01:04;101637.84;;;22.38;65.35
69784;BME280;57054;51.978;4.498;2023-07-08T09:06:27;101632.78;;;22.47;65.32
69784;BME280;57054;51.978;4.498;2023-07-08T09:08:54;101635.81;;;22.53;65.85
69784;BME280;57054;51.978;4.498;2023-07-08T09:14:16;101636.88;;;22.73;64.92
69784;BME280;57054;51.978;4.498;2023-07-08T09:19:25;101655.31;;;22.88;64.87
69784;BME280;57054;51.978;4.498;2023-07-08T09:24:42;101655.31;;;22.99;64.17
69784;BME280;57054;51.978;4.498;2023-07-08T09:27:08;101657.16;;;23.10;64.14
69784;BME280;57054;51.978;4.498;2023-07-08T09:29:33;101657.63;;;23.15;63.76
69784;BME280;57054;51.978;4.498;2023-07-08T09:32:01;101655.19;;;23.23;63.35
69784;BME280;57054;51.978;4.498;2023-07-08T09:34:41;101652.13;;;23.28;63.22
69784;BME280;57054;51.978;4.498;2023-07-08T09:37:27;101655.16;;;23.34;63.66
69784;BME280;57054;51.978;4.498;2023-07-08T09:39:55;101652.69;;;23.43;63.41
69784;BME280;57054;51.978;4.498;2023-07-08T09:42:26;101646.56;;;23.52;62.84
69784;BME280;57054;51.978;4.498;2023-07-08T09:45:00;101645.97;;;23.60;62.86
69784;BME280;57054;51.978;4.498;2023-07-08T09:47:33;101640.94;;;23.66;62.00
69784;BME280;57054;51.978;4.498;2023-07-08T09:50:00;101643.94;;;23.73;62.62
69784;BME280;57054;51.978;4.498;2023-07-08T09:52:29;101641.50;;;23.81;62.95
69784;BME280;57054;51.978;4.498;2023-07-08T09:54:55;101636.25;;;23.91;62.19
69784;BME280;57054;51.978;4.498;2023-07-08T09:57:29;101633.16;;;23.95;62.25
69784;BME280;57054;51.978;4.498;2023-07-08T10:00:00;101638.97;;;24.01;62.12
69784;BME280;57054;51.978;4.498;2023-07-08T10:02:50;101640.84;;;24.10;62.36
69784;BME280;57054;51.978;4.498;2023-07-08T10:05:34;101633.16;;;24.17;62.52
69784;BME280;57054;51.978;4.498;2023-07-08T10:08:02;101635.63;;;24.29;61.90
69784;BME280;57054;51.978;4.498;2023-07-08T10:10:35;101642.59;;;24.42;61.35
69784;BME280;57054;51.978;4.498;2023-07-08T10:13:34;101642.63;;;24.51;61.01
69784;BME280;57054;51.978;4.498;2023-07-08T10:18:39;101642.03;;;24.69;61.19
69784;BME280;57054;51.978;4.498;2023-07-08T10:26:52;101651.56;;;24.93;59.27
69784;BME280;57054;51.978;4.498;2023-07-08T10:29:51;101654.53;;;24.99;58.10
69784;BME280;57054;51.978;4.498;2023-07-08T10:35:09;101660.63;;;25.11;57.87
69784;BME280;57054;51.978;4.498;2023-07-08T10:40:57;101657.59;;;25.25;57.58
69784;BME280;57054;51.978;4.498;2023-07-08T10:59:44;101655.22;;;25.52;57.80
69784;BME280;57054;51.978;4.498;2023-07-08T11:02:26;101661.84;;;25.57;57.74
69784;BME280;57054;51.978;4.498;2023-07-08T11:11:06;101656.63;;;25.85;56.32
69784;BME280;57054;51.978;4.498;2023-07-08T11:13:37;101653.38;;;25.91;55.18
69784;BME280;57054;51.978;4.498;2023-07-08T11:18:43;101647.16;;;25.91;56.44
69784;BME280;57054;51.978;4.498;2023-07-08T11:21:20;101647.44;;;25.88;56.75
69784;BME280;57054;51.978;4.498;2023-07-08T11:23:50;101644.47;;;25.91;57.31
69784;BME280;57054;51.978;4.498;2023-07-08T11:28:43;101647.72;;;26.04;55.17
69784;BME280;57054;51.978;4.498;2023-07-08T11:31:09;101638.38;;;26.08;53.63
69784;BME280;57054;51.978;4.498;2023-07-08T11:33:36;101640.66;;;26.13;54.08
69784;BME280;57054;51.978;4.498;2023-07-08T11:36:03;101637.38;;;26.19;53.05
69784;BME280;57054;51.978;4.498;2023-07-08T11:38:31;101641.03;;;26.28;53.64
69784;BME280;57054;51.978;4.498;2023-07-08T11:41:03;101630.25;;;26.37;52.78
69784;BME280;57054;51.978;4.498;2023-07-08T11:43:42;101629.34;;;26.47;52.81
69784;BME280;57054;51.978;4.498;2023-07-08T11:46:14;101637.25;;;26.58;52.72
69784;BME280;57054;51.978;4.498;2023-07-08T11:48:46;101634.53;;;26.68;50.95
69784;BME280;57054;51.978;4.498;2023-07-08T11:51:18;101637.50;;;26.74;50.47
69784;BME280;57054;51.978;4.498;2023-07-08T11:53:50;101639.72;;;26.79;50.57
69784;BME280;57054;51.978;4.498;2023-07-08T12:03:39;101621.59;;;26.81;52.03
69784;BME280;57054;51.978;4.498;2023-07-08T12:08:57;101614.25;;;27.01;51.88
69784;BME280;57054;51.978;4.498;2023-07-08T12:11:34;101621.75;;;27.07;51.58
69784;BME280;57054;51.978;4.498;2023-07-08T12:14:02;101613.28;;;27.02;52.20
69784;BME280;57054;51.978;4.498;2023-07-08T12:16:30;101624.28;;;27.09;50.05
69784;BME280;57054;51.978;4.498;2023-07-08T12:18:57;101623.50;;;27.16;49.95
69784;BME280;57054;51.978;4.498;2023-07-08T12:21:25;101619.38;;;27.22;49.69
69784;BME280;57054;51.978;4.498;2023-07-08T12:23:51;101612.81;;;27.25;48.72
69784;BME280;57054;51.978;4.498;2023-07-08T12:26:17;101608.16;;;27.27;49.48
69784;BME280;57054;51.978;4.498;2023-07-08T12:28:42;101606.47;;;27.26;49.92
69784;BME280;57054;51.978;4.498;2023-07-08T12:31:19;101604.72;;;27.34;49.13
69784;BME280;57054;51.978;4.498;2023-07-08T12:33:46;101604.63;;;27.44;49.08
69784;BME280;57054;51.978;4.498;2023-07-08T12:36:17;101603.84;;;27.52;48.66
69784;BME280;57054;51.978;4.498;2023-07-08T12:38:44;101604.19;;;27.49;48.93
69784;BME280;57054;51.978;4.498;2023-07-08T12:41:18;101598.81;;;27.49;48.51
69784;BME280;57054;51.978;4.498;2023-07-08T12:43:45;101605.19;;;27.48;49.29
69784;BME280;57054;51.978;4.498;2023-07-08T12:46:11;101612.25;;;27.49;49.62
69784;BME280;57054;51.978;4.498;2023-07-08T12:48:38;101605.72;;;27.51;49.08
69784;BME280;57054;51.978;4.498;2023-07-08T12:51:06;101599.00;;;27.55;48.42
69784;BME280;57054;51.978;4.498;2023-07-08T12:53:32;101600.22;;;27.61;48.39
69784;BME280;57054;51.978;4.498;2023-07-08T12:55:59;101593.22;;;27.68;46.95
69784;BME280;57054;51.978;4.498;2023-07-08T12:58:28;101599.53;;;27.77;46.94
69784;BME280;57054;51.978;4.498;2023-07-08T13:00:55;101595.19;;;27.84;46.81
69784;BME280;57054;51.978;4.498;2023-07-08T13:03:28;101604.75;;;27.97;46.47
69784;BME280;57054;51.978;4.498;2023-07-08T13:05:55;101594.88;;;28.05;47.21
69784;BME280;57054;51.978;4.498;2023-07-08T13:08:25;101595.06;;;28.12;46.98
69784;BME280;57054;51.978;4.498;2023-07-08T13:10:55;101595.59;;;28.15;46.37
69784;BME280;57054;51.978;4.498;2023-07-08T13:13:25;101589.22;;;28.17;46.57
69784;BME280;57054;51.978;4.498;2023-07-08T13:15:52;101587.03;;;28.20;46.78
69784;BME280;57054;51.978;4.498;2023-07-08T13:18:23;101592.09;;;28.23;46.35
69784;BME280;57054;51.978;4.498;2023-07-08T13:20:52;101594.47;;;28.26;45.58
69784;BME280;57054;51.978;4.498;2023-07-08T13:23:19;101589.91;;;28.27;44.71
69784;BME280;57054;51.978;4.498;2023-07-08T13:25:47;101589.75;;;28.28;45.67
69784;BME280;57054;51.978;4.498;2023-07-08T13:28:20;101587.94;;;28.29;46.20
69784;BME280;57054;51.978;4.498;2023-07-08T13:30:55;101594.00;;;28.31;45.80
69784;BME280;57054;51.978;4.498;2023-07-08T13:33:22;101599.03;;;28.34;45.58
69784;BME280;57054;51.978;4.498;2023-07-08T13:35:50;101597.00;;;28.28;46.32
69784;BME280;57054;51.978;4.498;2023-07-08T13:38:19;101596.47;;;28.24;46.97
69784;BME280;57054;51.978;4.498;2023-07-08T13:40:47;101601.59;;;28.36;45.32
69784;BME280;57054;51.978;4.498;2023-07-08T13:43:14;101610.03;;;28.41;45.25
69784;BME280;57054;51.978;4.498;2023-07-08T13:45:44;101613.09;;;28.46;45.05
69784;BME280;57054;51.978;4.498;2023-07-08T13:48:42;101607.41;;;28.49;45.59
69784;BME280;57054;51.978;4.498;2023-07-08T13:51:16;101619.25;;;28.56;44.49
69784;BME280;57054;51.978;4.498;2023-07-08T13:56:23;101615.84;;;28.54;44.83
69784;BME280;57054;51.978;4.498;2023-07-08T13:58:52;101614.94;;;28.45;45.84
69784;BME280;57054;51.978;4.498;2023-07-08T14:01:23;101615.13;;;28.52;45.84
69784;BME280;57054;51.978;4.498;2023-07-08T14:03:51;101615.22;;;28.60;44.95